GW2542 Weather Reports


Display with metric or nautical units.
time (UTC)temp
F
wind
direction
speed
MPH
gust
MPH
rain 1hr
in
rain 24hr
in
rain mn
in
humidity
%
barometer
mb
20260508075011 40 344 1.0 3.0 0.00 0.00 0.00 76 1016.8
20260508074529 40 0 1.0 3.0 0.00 0.00 0.00 76 1016.8
20260508074010 40 349 2.0 3.0 0.00 0.00 0.00 76 1017.1
20260508073510 40 339 1.0 4.0 0.00 0.00 0.00 75 1017.0
20260508073034 40 23 1.0 4.0 0.00 0.00 0.00 75 1017.0
20260508072512 41 337 2.0 4.0 0.00 0.00 0.00 75 1017.0
20260508072011 41 335 1.0 3.0 0.00 0.00 0.00 75 1017.0
20260508071527 41 0 0.0 1.0 0.00 0.00 0.00 74 1017.1
20260508071014 41 325 0.0 2.0 0.00 0.00 0.00 74 1017.0
20260508070513 41 0 0.0 3.0 0.00 0.00 0.00 74 1017.1
20260508070029 41 325 1.0 4.0 0.00 0.00 0.00 73 1017.1
20260508065510 41 324 2.0 4.0 0.00 0.00 0.00 73 1017.1
20260508065019 41 329 1.0 4.0 0.00 0.00 0.00 73 1017.1
20260508064538 41 320 2.0 4.0 0.00 0.00 0.00 72 1017.2
20260508064012 42 345 3.0 4.0 0.00 0.00 0.00 72 1017.0
20260508063513 42 324 2.0 4.0 0.00 0.00 0.00 73 1017.2
20260508063035 42 350 2.0 4.0 0.00 0.00 0.00 73 1017.2
20260508062511 42 0 0.0 2.0 0.00 0.00 0.00 73 1017.2
20260508062010 42 26 0.0 2.0 0.00 0.00 0.00 74 1017.1
20260508061530 42 0 0.0 4.0 0.00 0.00 0.00 74 1017.0
20260508061012 42 0 1.0 4.0 0.00 0.00 0.00 75 1017.0
20260508060510 42 351 1.0 4.0 0.00 0.00 0.00 76 1016.8
20260508060029 42 329 0.0 4.0 0.00 0.00 0.00 76 1016.8
20260508055512 42 0 0.0 4.0 0.00 0.00 0.00 76 1016.8
20260508055011 42 0 0.0 5.0 0.00 0.00 0.00 76 1016.8
20260508054531 42 331 1.0 5.0 0.00 0.00 0.00 76 1016.8
20260508054012 42 344 2.0 5.0 0.00 0.00 0.00 76 1016.8
20260508053512 41 0 1.0 6.0 0.00 0.00 0.00 75 1016.8
20260508053030 41 5 2.0 6.0 0.00 0.00 0.00 75 1016.8
20260508052514 42 336 0.0 3.0 0.00 0.00 0.00 74 1016.8
20260508052012 42 325 2.0 3.0 0.00 0.00 0.00 72 1016.7
20260508051529 42 333 1.0 3.0 0.00 0.00 0.00 71 1016.8
20260508051012 42 325 2.0 3.0 0.00 0.00 0.00 70 1016.9
20260508050512 43 325 1.0 3.0 0.00 0.00 0.00 69 1016.9
20260508050035 43 328 2.0 3.0 0.00 0.00 0.00 69 1016.9
20260508045513 44 321 1.0 4.0 0.00 0.00 0.00 69 1016.8
20260508045013 44 320 2.0 4.0 0.00 0.00 0.00 68 1016.8
20260508044527 44 326 2.0 4.0 0.00 0.00 0.00 68 1016.9
20260508044012 45 319 2.0 4.0 0.00 0.00 0.00 67 1016.9
20260508043511 45 311 1.0 4.0 0.00 0.00 0.00 67 1016.7
20260508043041 45 323 3.0 4.0 0.00 0.00 0.00 66 1016.8
20260508042513 46 311 1.0 2.0 0.00 0.00 0.00 65 1016.7
20260508042015 47 0 0.0 4.0 0.00 0.00 0.00 64 1016.7
20260508041528 47 320 1.0 5.0 0.00 0.00 0.00 64 1016.7
20260508041013 47 329 3.0 5.0 0.00 0.00 0.00 64 1016.6
20260508040515 48 326 3.0 6.0 0.00 0.00 0.00 63 1016.7
20260508040052 48 319 3.0 6.0 0.00 0.00 0.00 63 1016.7
20260508035510 48 342 2.0 5.0 0.00 0.00 0.00 63 1016.8
20260508035014 49 238 0.0 5.0 0.00 0.00 0.00 62 1016.7
20260508034531 49 205 2.0 5.0 0.00 0.00 0.00 62 1016.6
20260508034012 49 187 3.0 5.0 0.00 0.00 0.00 61 1016.4
20260508033512 50 171 1.0 4.0 0.00 0.00 0.00 60 1016.5
20260508033028 50 309 2.0 4.0 0.00 0.00 0.00 60 1016.6
20260508032511 50 279 1.0 4.0 0.00 0.00 0.00 59 1016.4
20260508032013 50 350 1.0 4.0 0.00 0.00 0.00 59 1016.2
20260508031530 50 143 0.0 6.0 0.00 0.00 0.00 58 1016.0
20260508031013 51 151 1.0 6.0 0.00 0.00 0.00 58 1015.9
20260508030514 51 205 3.0 6.0 0.00 0.00 0.00 58 1015.9
20260508030038 51 334 2.0 6.0 0.00 0.00 0.00 58 1015.9
20260508025511 51 15 3.0 5.0 0.00 0.00 0.00 57 1015.8
20260508025013 52 225 0.0 3.0 0.00 0.00 0.00 54 1015.9
20260508024529 52 250 1.0 3.0 0.00 0.00 0.00 54 1015.7
20260508024013 52 0 0.0 3.0 0.00 0.00 0.00 53 1015.6
20260508023512 52 135 2.0 5.0 0.00 0.00 0.00 54 1015.6
20260508023029 53 239 1.0 6.0 0.00 0.00 0.00 52 1015.7
20260508022511 53 175 3.0 9.0 0.00 0.00 0.00 52 1015.6
20260508022011 53 110 1.0 10.0 0.00 0.00 0.00 51 1015.4
20260508021528 53 15 5.0 11.0 0.00 0.00 0.00 50 1015.5
20260508021013 54 14 6.0 12.0 0.00 0.00 0.00 50 1015.3
20260508020510 54 15 6.0 13.0 0.00 0.00 0.00 50 1015.4
20260508020035 54 348 10.0 13.0 0.00 0.00 0.00 48 1015.3
20260508015514 55 334 8.0 12.0 0.00 0.00 0.00 48 1015.3
20260508015013 55 338 6.0 17.0 0.00 0.00 0.00 47 1015.3
20260508014530 55 15 8.0 21.0 0.00 0.00 0.00 45 1015.3
20260508014013 56 10 12.0 24.0 0.00 0.00 0.00 45 1015.2
20260508013512 56 350 15.0 24.0 0.00 0.00 0.00 44 1015.5
20260508013027 57 298 7.0 12.0 0.00 0.00 0.00 44 1015.3
20260508012515 57 303 7.0 13.0 0.00 0.00 0.00 43 1015.1
20260508012010 57 272 7.0 15.0 0.00 0.00 0.00 43 1015.1
20260508011530 57 261 6.0 15.0 0.00 0.00 0.00 43 1015.0
20260508011011 57 261 6.0 13.0 0.00 0.00 0.00 43 1015.0
20260508010512 57 274 6.0 13.0 0.00 0.00 0.00 44 1015.0
20260508010033 57 241 4.0 11.0 0.00 0.00 0.00 45 1014.9
20260508005511 58 283 4.0 13.0 0.00 0.00 0.00 43 1015.0
20260508005013 58 235 4.0 13.0 0.00 0.00 0.00 43 1014.9
20260508004528 58 283 6.0 12.0 0.00 0.00 0.00 44 1014.9
20260508004013 58 273 7.0 12.0 0.00 0.00 0.00 43 1015.0
20260508003512 58 275 6.0 13.0 0.00 0.00 0.00 44 1014.9
20260508003028 58 303 7.0 13.0 0.00 0.00 0.00 44 1015.0
20260508002509 58 289 8.0 13.0 0.00 0.00 0.00 43 1015.0
20260508002014 58 274 6.0 16.0 0.00 0.00 0.00 44 1015.1
20260508001549 59 272 6.0 16.0 0.00 0.00 0.00 42 1015.1
20260508001013 59 290 5.0 16.0 0.00 0.00 0.00 43 1015.2
20260508000511 59 272 7.0 16.0 0.00 0.00 0.00 42 1015.3
20260508000029 59 254 8.0 16.0 0.00 0.00 0.00 41 1015.3
20260507235513 60 246 5.0 19.0 0.00 0.00 0.00 39 1015.4
20260507235010 60 289 10.0 20.0 0.00 0.00 0.00 41 1015.5
20260507234526 61 286 11.0 22.0 0.00 0.00 0.00 41 1015.5
20260507234052 61 272 10.0 24.0 0.00 0.00 0.00 39 1015.3
20260507233510 62 297 14.0 24.0 0.00 0.00 0.00 39 1015.1
20260507233030 62 288 13.0 25.0 0.00 0.00 0.00 38 1015.3
20260507232513 62 271 10.0 25.0 0.00 0.00 0.00 36 1015.1
20260507232012 61 251 14.0 25.0 0.00 0.00 0.00 35 1015.1
20260507231534 61 286 11.0 25.0 0.00 0.00 0.00 36 1015.2
20260507231011 62 262 10.0 25.0 0.00 0.00 0.00 35 1015.1
20260507230515 62 217 11.0 24.0 0.00 0.00 0.00 34 1015.0
20260507230029 62 241 11.0 21.0 0.00 0.00 0.00 38 1015.0
20260507225515 62 287 11.0 24.0 0.00 0.00 0.00 36 1014.9
20260507225013 61 233 11.0 24.0 0.00 0.00 0.00 37 1015.0
20260507224537 61 284 14.0 24.0 0.00 0.00 0.00 37 1015.1
20260507224011 61 227 9.0 22.0 0.00 0.00 0.00 37 1015.0
20260507223515 62 271 7.0 15.0 0.00 0.00 0.00 36 1015.1
20260507223029 63 259 5.0 18.0 0.00 0.00 0.00 36 1015.1
20260507222512 63 255 9.0 18.0 0.00 0.00 0.00 35 1015.1
20260507222013 64 305 8.0 18.0 0.00 0.00 0.00 36 1015.1
20260507221528 63 267 9.0 22.0 0.00 0.00 0.00 38 1015.3
20260507221014 63 277 12.0 22.0 0.00 0.00 0.00 37 1015.4
20260507220510 63 244 10.0 18.0 0.00 0.00 0.00 39 1015.5
20260507220039 62 289 10.0 23.0 0.00 0.00 0.00 40 1015.5
20260507215513 61 273 9.0 23.0 0.00 0.00 0.00 39 1015.6
20260507215013 61 265 12.0 23.0 0.00 0.00 0.00 39 1015.6
20260507214535 62 242 11.0 21.0 0.00 0.00 0.00 40 1015.7
20260507214011 62 252 10.0 23.0 0.00 0.00 0.00 42 1015.7
20260507213513 62 277 10.0 23.0 0.00 0.00 0.00 40 1015.9
20260507213033 62 245 11.0 19.0 0.00 0.00 0.00 41 1016.0
20260507212511 62 300 12.0 19.0 0.00 0.00 0.00 39 1016.1
20260507212014 63 256 8.0 21.0 0.00 0.00 0.00 38 1016.2
20260507211534 63 243 12.0 25.0 0.00 0.00 0.00 39 1016.3
20260507211013 63 282 11.0 25.0 0.00 0.00 0.00 40 1016.4
20260507210514 62 270 13.0 25.0 0.00 0.00 0.00 39 1016.5
20260507210028 62 217 14.0 23.0 0.00 0.00 0.00 39 1016.6
20260507205513 63 232 8.0 18.0 0.00 0.00 0.00 39 1016.6
20260507205014 63 224 9.0 21.0 0.00 0.00 0.00 39 1016.6
20260507204528 62 237 5.0 21.0 0.00 0.00 0.00 44 1016.6
20260507204015 62 297 14.0 22.0 0.00 0.00 0.00 40 1016.8
20260507203510 62 304 10.0 24.0 0.00 0.00 0.00 41 1016.8
20260507203033 62 253 10.0 24.0 0.00 0.00 0.00 41 1017.0
20260507202509 61 248 15.0 24.0 0.00 0.00 0.00 42 1017.1
20260507202013 61 240 4.0 14.0 0.00 0.00 0.00 41 1017.2
20260507201527 61 281 7.0 21.0 0.00 0.00 0.00 41 1017.4
20260507201011 61 205 8.0 21.0 0.00 0.00 0.00 43 1017.5
20260507200511 60 263 13.0 21.0 0.00 0.00 0.00 42 1017.6
20260507200029 60 212 8.0 19.0 0.00 0.00 0.00 42 1017.6
20260507195513 61 195 9.0 19.0 0.00 0.00 0.00 44 1017.7
20260507195011 60 292 9.0 17.0 0.00 0.00 0.00 42 1017.9
20260507194528 60 302 7.0 19.0 0.00 0.00 0.00 43 1018.0
20260507194010 59 252 9.0 19.0 0.00 0.00 0.00 44 1017.9
20260507193510 59 289 8.0 17.0 0.00 0.00 0.00 43 1018.0
20260507193032 59 207 10.0 19.0 0.00 0.00 0.00 42 1018.1
20260507192513 59 261 7.0 21.0 0.00 0.00 0.00 40 1018.1
20260507192012 59 246 10.0 21.0 0.00 0.00 0.00 42 1018.2
20260507191530 59 245 11.0 26.0 0.00 0.00 0.00 43 1018.3
20260507191013 58 264 13.0 26.0 0.00 0.00 0.00 41 1018.4
20260507190513 57 322 9.0 18.0 0.00 0.00 0.00 48 1018.5
20260507190027 56 273 10.0 18.0 0.00 0.00 0.00 46 1018.7
20260507185516 55 281 9.0 14.0 0.00 0.00 0.00 44 1018.7
20260507185012 55 257 3.0 16.0 0.00 0.00 0.00 43 1018.8
20260507184527 55 219 5.0 16.0 0.00 0.00 0.00 43 1018.8
20260507184017 54 205 8.0 15.0 0.00 0.00 0.00 46 1018.9
20260507183512 54 157 7.0 14.0 0.00 0.00 0.00 45 1019.0
20260507183028 54 200 9.0 13.0 0.00 0.00 0.00 43 1019.1
20260507182513 53 180 6.0 12.0 0.00 0.00 0.00 43 1019.3
20260507182013 53 196 6.0 12.0 0.00 0.00 0.00 43 1019.3
20260507181530 53 196 6.0 13.0 0.00 0.00 0.00 43 1019.4
20260507181013 52 194 6.0 13.0 0.00 0.00 0.00 46 1019.5
20260507180513 52 257 7.0 11.0 0.00 0.00 0.00 46 1019.6
20260507180028 52 195 4.0 9.0 0.00 0.00 0.00 50 1019.6
20260507175512 51 228 4.0 9.0 0.00 0.00 0.00 49 1019.8
20260507175016 51 229 4.0 9.0 0.00 0.00 0.00 48 1019.9
20260507174538 50 170 2.0 8.0 0.00 0.00 0.00 52 1019.9
20260507174014 49 184 4.0 8.0 0.00 0.00 0.00 57 1020.0
20260507173514 49 236 2.0 8.0 0.00 0.00 0.00 55 1020.1
20260507173030 49 187 3.0 8.0 0.00 0.00 0.00 57 1020.1
20260507172512 48 213 1.0 5.0 0.00 0.00 0.00 56 1020.2
20260507172012 47 189 1.0 4.0 0.00 0.00 0.00 58 1020.4
20260507171533 46 117 1.0 4.0 0.00 0.00 0.00 59 1020.6
20260507171013 44 349 2.0 4.0 0.00 0.00 0.00 65 1020.8
20260507170513 43 9 1.0 3.0 0.00 0.00 0.00 65 1020.9
20260507170040 42 0 0.0 3.0 0.00 0.00 0.00 68 1020.9
20260507165510 41 299 1.0 3.0 0.00 0.00 0.00 67 1021.0
20260507165012 41 228 0.0 2.0 0.00 0.00 0.00 66 1021.1
20260507164527 40 0 0.0 3.0 0.00 0.00 0.00 71 1021.1
20260507164015 39 0 0.0 3.0 0.00 0.00 0.00 71 1021.2
20260507163512 39 48 1.0 3.0 0.00 0.00 0.00 69 1021.3
20260507163027 39 119 0.0 3.0 0.00 0.00 0.00 70 1021.3
20260507162512 38 0 1.0 4.0 0.00 0.00 0.00 69 1021.4
20260507162012 38 86 1.0 4.0 0.00 0.00 0.00 70 1021.5
20260507161529 38 128 1.0 3.0 0.00 0.00 0.00 70 1021.6
20260507161013 38 90 1.0 3.0 0.00 0.00 0.00 70 1021.6
20260507160513 37 73 1.0 3.0 0.00 0.00 0.00 69 1021.5
20260507160032 37 91 1.0 3.0 0.00 0.00 0.00 71 1021.5
20260507155512 37 106 1.0 3.0 0.00 0.00 0.00 72 1021.6
20260507155010 37 0 0.0 2.0 0.00 0.00 0.00 72 1021.6
20260507154528 37 0 0.0 2.0 0.00 0.00 0.00 72 1021.7
20260507154014 36 0 0.0 2.0 0.00 0.00 0.00 73 1021.7
20260507153512 36 110 0.0 3.0 0.00 0.00 0.00 74 1021.7
20260507153029 36 0 0.0 4.0 0.00 0.00 0.00 75 1021.7
20260507152518 35 169 1.0 4.0 0.00 0.00 0.00 77 1021.7
20260507152015 35 161 1.0 4.0 0.00 0.00 0.00 78 1021.8
20260507151528 35 130 1.0 4.0 0.00 0.00 0.00 82 1021.8
20260507151012 34 166 1.0 4.0 0.00 0.00 0.00 85 1022.0
20260507150513 33 188 0.0 4.0 0.00 0.00 0.00 87 1022.0
20260507150034 32 172 2.0 4.0 0.00 0.00 0.00 89 1021.9
20260507145512 31 188 1.0 4.0 0.00 0.00 0.00 89 1021.9
20260507145013 30 134 2.0 5.0 0.00 0.00 0.00 90 1022.0
20260507144530 29 172 2.0 5.0 0.00 0.00 0.00 89 1022.0
20260507144013 29 141 2.0 5.0 0.00 0.00 0.00 89 1022.0
20260507143511 28 157 1.0 5.0 0.00 0.00 0.00 90 1022.0
20260507143034 28 137 0.0 3.0 0.00 0.00 0.00 90 1022.2
20260507142512 27 0 0.0 2.0 0.00 0.00 0.00 90 1022.3
20260507142012 27 0 0.0 1.0 0.00 0.00 0.00 90 1022.2
20260507141531 27 0 0.0 1.0 0.00 0.00 0.00 90 1021.9
20260507141014 26 0 0.0 2.0 0.00 0.00 0.00 90 1021.9
20260507140513 26 0 0.0 2.0 0.00 0.00 0.00 90 1022.0
20260507140032 26 134 1.0 2.0 0.00 0.00 0.00 90 1022.0
20260507135517 26 0 0.0 2.0 0.00 0.00 0.00 90 1022.1
20260507135017 25 0 0.0 0.0 0.00 0.00 0.00 90 1022.0
20260507134531 25 0 0.0 1.0 0.00 0.00 0.00 90 1021.9
20260507134015 25 0 0.0 1.0 0.00 0.00 0.00 90 1022.0
20260507133512 24 0 0.0 0.0 0.00 0.00 0.00 90 1021.9
20260507133030 24 0 0.0 1.0 0.00 0.00 0.00 90 1022.2
20260507132514 24 0 0.0 2.0 0.00 0.00 0.00 89 1022.1
20260507132011 24 0 0.0 2.0 0.00 0.00 0.00 89 1022.1
20260507131536 24 0 0.0 2.0 0.00 0.00 0.00 89 1022.1
20260507131011 23 46 1.0 2.0 0.00 0.00 0.00 89 1022.1
20260507130511 23 0 0.0 3.0 0.00 0.00 0.00 89 1022.2
20260507130027 23 0 0.0 3.0 0.00 0.00 0.00 89 1022.1
20260507125512 23 352 2.0 3.0 0.00 0.00 0.00 89 1022.0
20260507125014 23 0 0.0 0.0 0.00 0.00 0.00 89 1022.0
20260507124531 22 0 0.0 0.0 0.00 0.00 0.00 89 1022.0
20260507124011 22 0 0.0 2.0 0.00 0.00 0.00 88 1021.9
20260507123511 22 0 0.0 2.0 0.00 0.00 0.00 88 1022.0
20260507123028 22 0 0.0 4.0 0.00 0.00 0.00 88 1022.0
20260507122511 22 0 1.0 4.0 0.00 0.00 0.00 88 1022.0
20260507122014 22 186 1.0 3.0 0.00 0.00 0.00 88 1022.1
20260507121531 22 0 0.0 1.0 0.00 0.00 0.00 88 1022.0
20260507121013 22 0 0.0 2.0 0.00 0.00 0.00 88 1022.0
20260507120510 22 0 0.0 2.0 0.00 0.00 0.00 88 1021.9
20260507120037 22 346 0.0 4.0 0.00 0.00 0.00 88 1021.9
20260507115509 22 346 2.0 4.0 0.00 0.00 0.00 88 1021.9
20260507115011 22 315 1.0 4.0 0.00 0.00 0.00 88 1021.9
20260507114527 22 338 2.0 4.0 0.00 0.00 0.00 87 1021.9
20260507114013 22 277 0.0 3.0 0.00 0.00 0.00 87 1021.9
20260507113513 22 266 0.0 3.0 0.00 0.00 0.00 87 1022.0
20260507113031 22 0 0.0 0.0 0.00 0.00 0.00 87 1021.9
20260507112513 22 0 0.0 0.0 0.00 0.00 0.00 87 1021.9
20260507112014 22 0 0.0 1.0 0.00 0.00 0.00 87 1022.1
20260507111528 22 0 0.0 1.0 0.00 0.00 0.00 87 1022.1
20260507111009 22 0 0.0 1.0 0.00 0.00 0.00 87 1022.1
20260507110512 22 0 0.0 2.0 0.00 0.00 0.00 87 1022.1
20260507110031 22 275 0.0 2.0 0.00 0.00 0.00 87 1022.1
20260507105511 22 264 1.0 3.0 0.00 0.00 0.00 87 1022.1
20260507105012 22 0 0.0 4.0 0.00 0.00 0.00 87 1022.0
20260507104531 22 0 1.0 4.0 0.00 0.00 0.00 86 1022.0
20260507104014 22 344 1.0 3.0 0.00 0.00 0.00 86 1022.1
20260507103515 22 323 2.0 4.0 0.00 0.00 0.00 86 1022.2
20260507102517 22 0 0.0 0.0 0.00 0.00 0.00 86 1022.2
20260507102010 22 0 0.0 0.0 0.00 0.00 0.00 86 1022.1
20260507101012 23 0 0.0 2.0 0.00 0.00 0.00 85 1022.3
20260507100511 23 0 0.0 4.0 0.00 0.00 0.00 85 1022.3
20260507100037 23 315 0.0 4.0 0.00 0.00 0.00 85 1022.3
20260507095515 23 321 1.0 3.0 0.00 0.00 0.00 85 1022.3
20260507095013 23 325 1.0 3.0 0.00 0.00 0.00 85 1022.3
20260507094533 23 327 1.0 3.0 0.00 0.00 0.00 84 1022.4
20260507094012 23 327 0.0 2.0 0.00 0.00 0.00 84 1022.4
20260507093512 23 0 0.0 1.0 0.00 0.00 0.00 84 1022.3
20260507093030 23 0 0.0 1.0 0.00 0.00 0.00 83 1022.3
20260507092512 23 327 0.0 1.0 0.00 0.00 0.00 83 1022.4
20260507092012 23 327 0.0 1.0 0.00 0.00 0.00 83 1022.4
20260507091011 24 327 0.0 1.0 0.00 0.00 0.00 83 1022.4
20260507090515 24 0 0.0 0.0 0.00 0.00 0.00 83 1022.5
20260507090036 24 0 0.0 2.0 0.00 0.00 0.00 83 1022.3
20260507085511 24 0 0.0 3.0 0.00 0.00 0.00 83 1022.3
20260507085012 24 0 1.0 3.0 0.00 0.00 0.00 82 1022.3
20260507084531 24 334 1.0 3.0 0.00 0.00 0.00 82 1022.3
20260507084012 24 333 1.0 3.0 0.00 0.00 0.00 82 1022.3
20260507083510 24 0 0.0 3.0 0.00 0.00 0.00 82 1022.2
20260507083030 24 0 1.0 4.0 0.00 0.00 0.00 82 1022.3
20260507082511 25 344 2.0 4.0 0.00 0.00 0.00 82 1022.4
20260507082010 25 343 2.0 4.0 0.00 0.00 0.00 81 1022.4
20260507081540 25 0 0.0 2.0 0.00 0.00 0.00 81 1022.4
20260507081012 25 0 0.0 2.0 0.00 0.00 0.00 81 1022.5
20260507080511 25 335 0.0 3.0 0.00 0.00 0.00 81 1022.5
20260507080027 25 0 0.0 3.0 0.00 0.00 0.00 81 1022.5
20260507075514 25 336 0.0 3.0 0.00 0.00 0.00 81 1022.5